sensor_id;sensor_type;location;lat;lon;timestamp;temperature;humidity
10270;DHT22;5180;50.832;5.390;2022-07-17T00:01:47;15.60;83.90
10270;DHT22;5180;50.832;5.390;2022-07-17T00:04:13;15.50;83.80
10270;DHT22;5180;50.832;5.390;2022-07-17T00:06:38;15.50;83.90
10270;DHT22;5180;50.832;5.390;2022-07-17T00:09:04;15.40;83.90
10270;DHT22;5180;50.832;5.390;2022-07-17T00:11:30;15.30;83.90
10270;DHT22;5180;50.832;5.390;2022-07-17T00:13:55;15.20;84.10
10270;DHT22;5180;50.832;5.390;2022-07-17T00:16:21;15.00;84.00
10270;DHT22;5180;50.832;5.390;2022-07-17T00:18:48;14.90;84.20
10270;DHT22;5180;50.832;5.390;2022-07-17T00:21:13;14.70;84.30
10270;DHT22;5180;50.832;5.390;2022-07-17T00:23:39;14.60;84.60
10270;DHT22;5180;50.832;5.390;2022-07-17T00:26:05;14.50;84.90
10270;DHT22;5180;50.832;5.390;2022-07-17T00:28:30;14.40;85.10
10270;DHT22;5180;50.832;5.390;2022-07-17T00:30:56;14.30;85.40
10270;DHT22;5180;50.832;5.390;2022-07-17T00:33:22;14.20;85.80
10270;DHT22;5180;50.832;5.390;2022-07-17T00:35:47;14.20;85.80
10270;DHT22;5180;50.832;5.390;2022-07-17T00:38:13;14.10;86.00
10270;DHT22;5180;50.832;5.390;2022-07-17T00:40:39;14.10;86.10
10270;DHT22;5180;50.832;5.390;2022-07-17T00:43:05;14.00;86.10
10270;DHT22;5180;50.832;5.390;2022-07-17T00:45:30;14.00;86.40
10270;DHT22;5180;50.832;5.390;2022-07-17T00:47:58;14.00;86.60
10270;DHT22;5180;50.832;5.390;2022-07-17T00:50:27;14.00;86.80
10270;DHT22;5180;50.832;5.390;2022-07-17T00:52:54;14.00;87.00
10270;DHT22;5180;50.832;5.390;2022-07-17T00:55:22;14.10;87.20
10270;DHT22;5180;50.832;5.390;2022-07-17T00:57:48;14.10;87.40
10270;DHT22;5180;50.832;5.390;2022-07-17T01:00:15;14.10;87.50
10270;DHT22;5180;50.832;5.390;2022-07-17T01:02:48;14.00;87.60
10270;DHT22;5180;50.832;5.390;2022-07-17T01:05:15;14.00;87.70
10270;DHT22;5180;50.832;5.390;2022-07-17T01:07:41;13.90;87.80
10270;DHT22;5180;50.832;5.390;2022-07-17T01:10:07;13.90;88.00
10270;DHT22;5180;50.832;5.390;2022-07-17T01:12:33;13.90;88.20
10270;DHT22;5180;50.832;5.390;2022-07-17T01:15:00;13.90;88.50
10270;DHT22;5180;50.832;5.390;2022-07-17T01:17:26;13.90;88.80
10270;DHT22;5180;50.832;5.390;2022-07-17T01:19:53;14.00;89.00
10270;DHT22;5180;50.832;5.390;2022-07-17T01:22:19;14.00;89.30
10270;DHT22;5180;50.832;5.390;2022-07-17T01:24:45;14.00;89.30
10270;DHT22;5180;50.832;5.390;2022-07-17T01:27:11;14.00;89.40
10270;DHT22;5180;50.832;5.390;2022-07-17T01:29:37;14.00;89.60
10270;DHT22;5180;50.832;5.390;2022-07-17T01:32:04;14.00;89.70
10270;DHT22;5180;50.832;5.390;2022-07-17T01:34:30;14.00;89.80
10270;DHT22;5180;50.832;5.390;2022-07-17T01:36:55;13.90;89.80
10270;DHT22;5180;50.832;5.390;2022-07-17T01:39:21;13.90;90.00
10270;DHT22;5180;50.832;5.390;2022-07-17T01:42:07;13.80;90.00
10270;DHT22;5180;50.832;5.390;2022-07-17T01:44:33;13.70;90.30
10270;DHT22;5180;50.832;5.390;2022-07-17T01:46:58;13.60;90.10
10270;DHT22;5180;50.832;5.390;2022-07-17T01:49:24;13.60;90.20
10270;DHT22;5180;50.832;5.390;2022-07-17T01:51:50;13.60;90.30
10270;DHT22;5180;50.832;5.390;2022-07-17T01:54:15;13.60;90.40
10270;DHT22;5180;50.832;5.390;2022-07-17T01:56:41;13.50;90.50
10270;DHT22;5180;50.832;5.390;2022-07-17T01:59:07;13.50;90.60
10270;DHT22;5180;50.832;5.390;2022-07-17T02:01:33;13.50;90.70
10270;DHT22;5180;50.832;5.390;2022-07-17T02:03:58;13.50;90.90
10270;DHT22;5180;50.832;5.390;2022-07-17T02:06:24;13.50;91.00
10270;DHT22;5180;50.832;5.390;2022-07-17T02:08:50;13.50;91.00
10270;DHT22;5180;50.832;5.390;2022-07-17T02:11:17;13.50;91.10
10270;DHT22;5180;50.832;5.390;2022-07-17T02:13:43;13.40;91.20
10270;DHT22;5180;50.832;5.390;2022-07-17T02:16:08;13.40;91.30
10270;DHT22;5180;50.832;5.390;2022-07-17T02:18:34;13.40;91.40
10270;DHT22;5180;50.832;5.390;2022-07-17T02:21:00;13.40;91.50
10270;DHT22;5180;50.832;5.390;2022-07-17T02:23:26;13.40;91.70
10270;DHT22;5180;50.832;5.390;2022-07-17T02:25:51;13.40;92.10
10270;DHT22;5180;50.832;5.390;2022-07-17T02:28:17;13.40;91.90
10270;DHT22;5180;50.832;5.390;2022-07-17T02:30:43;13.40;92.00
10270;DHT22;5180;50.832;5.390;2022-07-17T02:33:08;13.40;92.10
10270;DHT22;5180;50.832;5.390;2022-07-17T02:35:34;13.40;92.30
10270;DHT22;5180;50.832;5.390;2022-07-17T02:38:00;13.30;92.40
10270;DHT22;5180;50.832;5.390;2022-07-17T02:40:25;13.20;92.60
10270;DHT22;5180;50.832;5.390;2022-07-17T02:42:51;13.20;92.70
10270;DHT22;5180;50.832;5.390;2022-07-17T02:45:17;13.20;92.80
10270;DHT22;5180;50.832;5.390;2022-07-17T02:47:47;13.20;92.90
10270;DHT22;5180;50.832;5.390;2022-07-17T02:50:12;13.20;93.00
10270;DHT22;5180;50.832;5.390;2022-07-17T02:52:38;13.20;93.00
10270;DHT22;5180;50.832;5.390;2022-07-17T02:55:05;13.20;93.10
10270;DHT22;5180;50.832;5.390;2022-07-17T02:57:30;13.20;93.20
10270;DHT22;5180;50.832;5.390;2022-07-17T02:59:57;13.20;93.40
10270;DHT22;5180;50.832;5.390;2022-07-17T03:02:22;13.20;93.50
10270;DHT22;5180;50.832;5.390;2022-07-17T03:04:48;13.20;93.70
10270;DHT22;5180;50.832;5.390;2022-07-17T03:07:14;13.10;93.90
10270;DHT22;5180;50.832;5.390;2022-07-17T03:09:39;13.10;93.90
10270;DHT22;5180;50.832;5.390;2022-07-17T03:12:06;13.10;94.00
10270;DHT22;5180;50.832;5.390;2022-07-17T03:14:31;13.10;94.10
10270;DHT22;5180;50.832;5.390;2022-07-17T03:16:57;13.10;94.30
10270;DHT22;5180;50.832;5.390;2022-07-17T03:19:23;13.10;94.40
10270;DHT22;5180;50.832;5.390;2022-07-17T03:21:48;13.10;94.50
10270;DHT22;5180;50.832;5.390;2022-07-17T03:24:14;13.20;94.60
10270;DHT22;5180;50.832;5.390;2022-07-17T03:26:40;13.20;94.70
10270;DHT22;5180;50.832;5.390;2022-07-17T03:29:05;13.20;94.80
10270;DHT22;5180;50.832;5.390;2022-07-17T03:31:31;13.10;94.80
10270;DHT22;5180;50.832;5.390;2022-07-17T03:33:57;13.00;94.90
10270;DHT22;5180;50.832;5.390;2022-07-17T03:36:22;12.80;95.00
10270;DHT22;5180;50.832;5.390;2022-07-17T03:38:48;12.70;95.00
10270;DHT22;5180;50.832;5.390;2022-07-17T03:41:13;12.60;95.10
10270;DHT22;5180;50.832;5.390;2022-07-17T03:43:39;12.50;95.10
10270;DHT22;5180;50.832;5.390;2022-07-17T03:46:05;12.50;95.20
10270;DHT22;5180;50.832;5.390;2022-07-17T03:48:30;12.40;95.30
10270;DHT22;5180;50.832;5.390;2022-07-17T03:50:56;12.40;95.40
10270;DHT22;5180;50.832;5.390;2022-07-17T03:53:21;12.40;95.50
10270;DHT22;5180;50.832;5.390;2022-07-17T03:55:47;12.40;95.60
10270;DHT22;5180;50.832;5.390;2022-07-17T03:58:13;12.40;95.80
10270;DHT22;5180;50.832;5.390;2022-07-17T04:00:38;12.40;95.80
10270;DHT22;5180;50.832;5.390;2022-07-17T04:03:04;12.50;95.90
10270;DHT22;5180;50.832;5.390;2022-07-17T04:05:30;12.50;96.00
10270;DHT22;5180;50.832;5.390;2022-07-17T04:07:55;12.50;96.10
10270;DHT22;5180;50.832;5.390;2022-07-17T04:10:21;12.60;96.20
10270;DHT22;5180;50.832;5.390;2022-07-17T04:12:46;12.60;96.40
10270;DHT22;5180;50.832;5.390;2022-07-17T04:15:13;12.70;96.50
10270;DHT22;5180;50.832;5.390;2022-07-17T04:17:59;12.80;96.50
10270;DHT22;5180;50.832;5.390;2022-07-17T04:20:24;12.90;96.60
10270;DHT22;5180;50.832;5.390;2022-07-17T04:22:50;12.90;96.60
10270;DHT22;5180;50.832;5.390;2022-07-17T04:25:16;13.00;96.90
10270;DHT22;5180;50.832;5.390;2022-07-17T04:27:41;13.00;96.70
10270;DHT22;5180;50.832;5.390;2022-07-17T04:30:07;13.10;96.80
10270;DHT22;5180;50.832;5.390;2022-07-17T04:32:33;13.10;96.90
10270;DHT22;5180;50.832;5.390;2022-07-17T04:34:59;13.20;97.00
10270;DHT22;5180;50.832;5.390;2022-07-17T04:37:24;13.30;97.00
10270;DHT22;5180;50.832;5.390;2022-07-17T04:39:50;13.40;97.00
10270;DHT22;5180;50.832;5.390;2022-07-17T04:42:15;13.40;96.90
10270;DHT22;5180;50.832;5.390;2022-07-17T04:44:41;13.50;97.00
10270;DHT22;5180;50.832;5.390;2022-07-17T04:47:06;13.60;97.10
10270;DHT22;5180;50.832;5.390;2022-07-17T04:49:32;13.60;97.20
10270;DHT22;5180;50.832;5.390;2022-07-17T04:51:58;13.80;97.20
10270;DHT22;5180;50.832;5.390;2022-07-17T04:54:23;13.90;97.50
10270;DHT22;5180;50.832;5.390;2022-07-17T04:56:49;14.00;97.20
10270;DHT22;5180;50.832;5.390;2022-07-17T04:59:14;14.10;97.50
10270;DHT22;5180;50.832;5.390;2022-07-17T05:01:41;14.30;97.30
10270;DHT22;5180;50.832;5.390;2022-07-17T05:04:06;14.30;97.40
10270;DHT22;5180;50.832;5.390;2022-07-17T05:06:32;14.50;97.50
10270;DHT22;5180;50.832;5.390;2022-07-17T05:08:57;14.60;97.50
10270;DHT22;5180;50.832;5.390;2022-07-17T05:11:23;14.90;97.40
10270;DHT22;5180;50.832;5.390;2022-07-17T05:13:49;15.30;97.50
10270;DHT22;5180;50.832;5.390;2022-07-17T05:16:14;15.50;97.40
10270;DHT22;5180;50.832;5.390;2022-07-17T05:18:40;15.80;97.40
10270;DHT22;5180;50.832;5.390;2022-07-17T05:21:06;16.30;97.30
10270;DHT22;5180;50.832;5.390;2022-07-17T05:23:31;16.90;97.10
10270;DHT22;5180;50.832;5.390;2022-07-17T05:25:57;18.10;96.80
10270;DHT22;5180;50.832;5.390;2022-07-17T05:28:23;19.30;96.20
10270;DHT22;5180;50.832;5.390;2022-07-17T05:30:49;20.60;95.40
10270;DHT22;5180;50.832;5.390;2022-07-17T05:33:14;21.80;94.40
10270;DHT22;5180;50.832;5.390;2022-07-17T05:35:40;22.90;93.30
10270;DHT22;5180;50.832;5.390;2022-07-17T05:38:06;23.90;92.20
10270;DHT22;5180;50.832;5.390;2022-07-17T05:40:31;24.60;91.30
10270;DHT22;5180;50.832;5.390;2022-07-17T05:42:57;25.30;90.40
10270;DHT22;5180;50.832;5.390;2022-07-17T05:45:23;26.10;89.00
10270;DHT22;5180;50.832;5.390;2022-07-17T05:47:49;26.70;87.40
10270;DHT22;5180;50.832;5.390;2022-07-17T05:50:14;27.10;84.80
10270;DHT22;5180;50.832;5.390;2022-07-17T05:52:40;27.60;84.00
10270;DHT22;5180;50.832;5.390;2022-07-17T05:55:06;28.00;81.80
10270;DHT22;5180;50.832;5.390;2022-07-17T05:57:32;28.20;80.50
10270;DHT22;5180;50.832;5.390;2022-07-17T05:59:58;28.40;79.30
10270;DHT22;5180;50.832;5.390;2022-07-17T06:02:24;28.80;78.30
10270;DHT22;5180;50.832;5.390;2022-07-17T06:04:49;29.00;77.80
10270;DHT22;5180;50.832;5.390;2022-07-17T06:07:15;29.20;76.20
10270;DHT22;5180;50.832;5.390;2022-07-17T06:09:41;29.20;75.20
10270;DHT22;5180;50.832;5.390;2022-07-17T06:12:07;29.20;74.70
10270;DHT22;5180;50.832;5.390;2022-07-17T06:14:32;29.10;74.80
10270;DHT22;5180;50.832;5.390;2022-07-17T06:16:58;29.20;73.60
10270;DHT22;5180;50.832;5.390;2022-07-17T06:19:24;29.40;72.30
10270;DHT22;5180;50.832;5.390;2022-07-17T06:21:49;29.40;71.90
10270;DHT22;5180;50.832;5.390;2022-07-17T06:24:15;29.30;71.30
10270;DHT22;5180;50.832;5.390;2022-07-17T06:26:40;29.50;70.80
10270;DHT22;5180;50.832;5.390;2022-07-17T06:29:06;29.50;70.90
10270;DHT22;5180;50.832;5.390;2022-07-17T06:31:32;30.00;69.80
10270;DHT22;5180;50.832;5.390;2022-07-17T06:33:58;30.00;69.10
10270;DHT22;5180;50.832;5.390;2022-07-17T06:36:23;30.40;68.60
10270;DHT22;5180;50.832;5.390;2022-07-17T06:38:49;30.50;67.80
10270;DHT22;5180;50.832;5.390;2022-07-17T06:41:14;30.80;67.30
10270;DHT22;5180;50.832;5.390;2022-07-17T06:43:40;31.30;66.60
10270;DHT22;5180;50.832;5.390;2022-07-17T06:46:06;31.50;65.80
10270;DHT22;5180;50.832;5.390;2022-07-17T06:48:32;31.70;65.10
10270;DHT22;5180;50.832;5.390;2022-07-17T06:50:57;31.70;64.50
10270;DHT22;5180;50.832;5.390;2022-07-17T06:53:23;31.50;64.00
10270;DHT22;5180;50.832;5.390;2022-07-17T06:55:48;31.20;63.50
10270;DHT22;5180;50.832;5.390;2022-07-17T06:58:14;31.10;63.60
10270;DHT22;5180;50.832;5.390;2022-07-17T07:00:40;31.30;63.40
10270;DHT22;5180;50.832;5.390;2022-07-17T07:03:05;31.50;63.00
10270;DHT22;5180;50.832;5.390;2022-07-17T07:05:31;32.00;63.00
10270;DHT22;5180;50.832;5.390;2022-07-17T07:07:57;32.40;61.90
10270;DHT22;5180;50.832;5.390;2022-07-17T07:10:22;32.60;61.30
10270;DHT22;5180;50.832;5.390;2022-07-17T07:12:48;32.40;60.60
10270;DHT22;5180;50.832;5.390;2022-07-17T07:15:14;32.30;60.80
10270;DHT22;5180;50.832;5.390;2022-07-17T07:17:40;32.60;60.30
10270;DHT22;5180;50.832;5.390;2022-07-17T07:20:06;32.80;60.20
10270;DHT22;5180;50.832;5.390;2022-07-17T07:22:32;32.70;59.80
10270;DHT22;5180;50.832;5.390;2022-07-17T07:24:58;32.70;59.70
10270;DHT22;5180;50.832;5.390;2022-07-17T07:27:24;33.00;59.30
10270;DHT22;5180;50.832;5.390;2022-07-17T07:29:49;33.20;59.00
10270;DHT22;5180;50.832;5.390;2022-07-17T07:32:15;33.30;59.40
10270;DHT22;5180;50.832;5.390;2022-07-17T07:34:41;33.50;59.00
10270;DHT22;5180;50.832;5.390;2022-07-17T07:37:07;33.30;58.70
10270;DHT22;5180;50.832;5.390;2022-07-17T07:39:33;33.10;58.80
10270;DHT22;5180;50.832;5.390;2022-07-17T07:41:58;32.80;59.00
10270;DHT22;5180;50.832;5.390;2022-07-17T07:44:25;32.80;59.00
10270;DHT22;5180;50.832;5.390;2022-07-17T07:46:51;32.80;58.60
10270;DHT22;5180;50.832;5.390;2022-07-17T07:49:17;32.80;58.20
10270;DHT22;5180;50.832;5.390;2022-07-17T07:51:43;33.00;58.00
10270;DHT22;5180;50.832;5.390;2022-07-17T07:54:08;33.20;57.50
10270;DHT22;5180;50.832;5.390;2022-07-17T07:56:34;32.90;57.20
10270;DHT22;5180;50.832;5.390;2022-07-17T07:59:00;32.70;57.20
10270;DHT22;5180;50.832;5.390;2022-07-17T08:01:26;32.30;57.50
10270;DHT22;5180;50.832;5.390;2022-07-17T08:03:51;32.10;57.90
10270;DHT22;5180;50.832;5.390;2022-07-17T08:06:17;32.00;58.20
10270;DHT22;5180;50.832;5.390;2022-07-17T08:08:43;31.70;57.90
10270;DHT22;5180;50.832;5.390;2022-07-17T08:11:08;31.50;58.30
10270;DHT22;5180;50.832;5.390;2022-07-17T08:13:34;31.70;58.50
10270;DHT22;5180;50.832;5.390;2022-07-17T08:16:00;31.70;58.10
10270;DHT22;5180;50.832;5.390;2022-07-17T08:18:26;31.40;58.60
10270;DHT22;5180;50.832;5.390;2022-07-17T08:20:52;31.50;59.70
10270;DHT22;5180;50.832;5.390;2022-07-17T08:23:18;31.90;58.30
10270;DHT22;5180;50.832;5.390;2022-07-17T08:25:44;32.10;58.10
10270;DHT22;5180;50.832;5.390;2022-07-17T08:28:11;31.90;57.50
10270;DHT22;5180;50.832;5.390;2022-07-17T08:30:37;31.40;57.80
10270;DHT22;5180;50.832;5.390;2022-07-17T08:33:04;30.90;58.30
10270;DHT22;5180;50.832;5.390;2022-07-17T08:35:30;30.80;59.10
10270;DHT22;5180;50.832;5.390;2022-07-17T08:37:57;31.00;58.70
10270;DHT22;5180;50.832;5.390;2022-07-17T08:40:25;31.50;58.50
10270;DHT22;5180;50.832;5.390;2022-07-17T08:42:52;32.00;58.10
10270;DHT22;5180;50.832;5.390;2022-07-17T08:45:18;32.20;57.50
10270;DHT22;5180;50.832;5.390;2022-07-17T08:47:44;32.00;57.90
10270;DHT22;5180;50.832;5.390;2022-07-17T08:50:11;31.90;56.90
10270;DHT22;5180;50.832;5.390;2022-07-17T08:52:39;31.80;56.70
10270;DHT22;5180;50.832;5.390;2022-07-17T08:55:11;32.10;56.40
10270;DHT22;5180;50.832;5.390;2022-07-17T08:57:39;32.10;55.90
10270;DHT22;5180;50.832;5.390;2022-07-17T09:00:06;31.90;56.30
10270;DHT22;5180;50.832;5.390;2022-07-17T09:02:32;31.90;56.00
10270;DHT22;5180;50.832;5.390;2022-07-17T09:04:58;31.70;56.00
10270;DHT22;5180;50.832;5.390;2022-07-17T09:07:24;31.60;55.80
10270;DHT22;5180;50.832;5.390;2022-07-17T09:09:52;31.40;55.60
10270;DHT22;5180;50.832;5.390;2022-07-17T09:12:25;31.40;55.40
10270;DHT22;5180;50.832;5.390;2022-07-17T09:14:51;31.40;55.20
10270;DHT22;5180;50.832;5.390;2022-07-17T09:17:16;31.30;55.20
10270;DHT22;5180;50.832;5.390;2022-07-17T09:19:45;31.20;55.20
10270;DHT22;5180;50.832;5.390;2022-07-17T09:22:23;31.10;55.40
10270;DHT22;5180;50.832;5.390;2022-07-17T09:24:54;30.80;55.40
10270;DHT22;5180;50.832;5.390;2022-07-17T09:32:33;30.80;56.20
10270;DHT22;5180;50.832;5.390;2022-07-17T09:35:01;30.90;55.80
10270;DHT22;5180;50.832;5.390;2022-07-17T09:37:28;31.10;55.40
10270;DHT22;5180;50.832;5.390;2022-07-17T09:39:55;31.10;55.40
10270;DHT22;5180;50.832;5.390;2022-07-17T09:42:25;30.90;55.10
10270;DHT22;5180;50.832;5.390;2022-07-17T09:47:31;30.50;55.50
10270;DHT22;5180;50.832;5.390;2022-07-17T09:49:59;30.80;55.50
10270;DHT22;5180;50.832;5.390;2022-07-17T09:52:27;31.00;55.60
10270;DHT22;5180;50.832;5.390;2022-07-17T09:54:54;31.50;55.60
10270;DHT22;5180;50.832;5.390;2022-07-17T09:57:31;31.80;55.10
10270;DHT22;5180;50.832;5.390;2022-07-17T10:00:01;32.20;55.10
10270;DHT22;5180;50.832;5.390;2022-07-17T10:02:28;32.10;55.60
10270;DHT22;5180;50.832;5.390;2022-07-17T10:04:54;31.80;54.70
10270;DHT22;5180;50.832;5.390;2022-07-17T10:07:20;31.50;54.40
10270;DHT22;5180;50.832;5.390;2022-07-17T10:09:46;31.50;53.80
10270;DHT22;5180;50.832;5.390;2022-07-17T10:12:13;31.40;53.80
10270;DHT22;5180;50.832;5.390;2022-07-17T10:14:40;31.00;53.80
10270;DHT22;5180;50.832;5.390;2022-07-17T10:17:12;30.80;54.30
10270;DHT22;5180;50.832;5.390;2022-07-17T10:19:54;30.70;54.30
10270;DHT22;5180;50.832;5.390;2022-07-17T10:22:20;31.20;54.30
10270;DHT22;5180;50.832;5.390;2022-07-17T10:24:51;31.80;54.50
10270;DHT22;5180;50.832;5.390;2022-07-17T10:27:26;32.40;54.10
10270;DHT22;5180;50.832;5.390;2022-07-17T10:30:04;32.90;53.80
10270;DHT22;5180;50.832;5.390;2022-07-17T10:32:31;33.20;53.80
10270;DHT22;5180;50.832;5.390;2022-07-17T10:35:03;33.30;53.10
10270;DHT22;5180;50.832;5.390;2022-07-17T10:37:39;33.00;53.30
10270;DHT22;5180;50.832;5.390;2022-07-17T10:40:07;32.80;54.00
10270;DHT22;5180;50.832;5.390;2022-07-17T10:42:58;33.00;53.80
10270;DHT22;5180;50.832;5.390;2022-07-17T10:45:31;33.10;53.50
10270;DHT22;5180;50.832;5.390;2022-07-17T10:48:10;32.60;52.90
10270;DHT22;5180;50.832;5.390;2022-07-17T10:50:46;32.20;52.70
10270;DHT22;5180;50.832;5.390;2022-07-17T10:53:32;31.90;52.80
10270;DHT22;5180;50.832;5.390;2022-07-17T10:55:59;31.80;52.70
10270;DHT22;5180;50.832;5.390;2022-07-17T10:58:41;31.70;52.30
10270;DHT22;5180;50.832;5.390;2022-07-17T11:01:08;31.90;52.20
10270;DHT22;5180;50.832;5.390;2022-07-17T11:03:43;31.80;51.90
10270;DHT22;5180;50.832;5.390;2022-07-17T11:08:51;32.00;51.50
10270;DHT22;5180;50.832;5.390;2022-07-17T11:11:23;32.10;51.20
10270;DHT22;5180;50.832;5.390;2022-07-17T11:13:49;32.30;52.10
10270;DHT22;5180;50.832;5.390;2022-07-17T11:16:30;32.30;51.90
10270;DHT22;5180;50.832;5.390;2022-07-17T11:18:56;32.60;51.60
10270;DHT22;5180;50.832;5.390;2022-07-17T11:21:23;32.60;51.40
10270;DHT22;5180;50.832;5.390;2022-07-17T11:23:56;32.10;51.20
10270;DHT22;5180;50.832;5.390;2022-07-17T11:26:22;31.60;51.60
10270;DHT22;5180;50.832;5.390;2022-07-17T11:28:49;31.50;52.30
10270;DHT22;5180;50.832;5.390;2022-07-17T11:36:32;31.70;51.80
10270;DHT22;5180;50.832;5.390;2022-07-17T11:39:00;32.00;52.30
10270;DHT22;5180;50.832;5.390;2022-07-17T11:43:57;31.90;52.00
10270;DHT22;5180;50.832;5.390;2022-07-17T11:46:23;32.00;52.30
10270;DHT22;5180;50.832;5.390;2022-07-17T11:48:49;32.30;52.20
10270;DHT22;5180;50.832;5.390;2022-07-17T11:51:15;32.50;52.40
10270;DHT22;5180;50.832;5.390;2022-07-17T11:53:42;32.80;52.20
10270;DHT22;5180;50.832;5.390;2022-07-17T11:56:07;32.90;52.00
10270;DHT22;5180;50.832;5.390;2022-07-17T11:58:42;32.80;51.90
10270;DHT22;5180;50.832;5.390;2022-07-17T12:01:09;32.80;52.00
10270;DHT22;5180;50.832;5.390;2022-07-17T12:03:34;32.40;51.60
10270;DHT22;5180;50.832;5.390;2022-07-17T12:06:00;32.30;51.60
10270;DHT22;5180;50.832;5.390;2022-07-17T12:08:26;32.30;51.50
10270;DHT22;5180;50.832;5.390;2022-07-17T12:11:05;32.40;51.60
10270;DHT22;5180;50.832;5.390;2022-07-17T12:13:41;32.50;51.60
10270;DHT22;5180;50.832;5.390;2022-07-17T12:16:24;32.60;51.60
10270;DHT22;5180;50.832;5.390;2022-07-17T12:18:57;32.80;51.30
10270;DHT22;5180;50.832;5.390;2022-07-17T12:21:23;32.70;51.00
10270;DHT22;5180;50.832;5.390;2022-07-17T12:23:58;32.50;50.80
10270;DHT22;5180;50.832;5.390;2022-07-17T12:26:24;32.40;50.80
10270;DHT22;5180;50.832;5.390;2022-07-17T12:28:49;32.50;50.90
10270;DHT22;5180;50.832;5.390;2022-07-17T12:31:15;32.50;50.90
10270;DHT22;5180;50.832;5.390;2022-07-17T12:33:42;32.30;50.90
10270;DHT22;5180;50.832;5.390;2022-07-17T12:36:08;32.30;50.90
10270;DHT22;5180;50.832;5.390;2022-07-17T12:38:33;32.40;51.00
10270;DHT22;5180;50.832;5.390;2022-07-17T12:40:59;32.60;51.10
10270;DHT22;5180;50.832;5.390;2022-07-17T12:43:25;32.80;50.80
10270;DHT22;5180;50.832;5.390;2022-07-17T12:45:51;33.10;50.90
10270;DHT22;5180;50.832;5.390;2022-07-17T12:48:17;33.10;50.40
10270;DHT22;5180;50.832;5.390;2022-07-17T12:50:43;33.00;49.80
10270;DHT22;5180;50.832;5.390;2022-07-17T12:53:09;32.80;49.90
10270;DHT22;5180;50.832;5.390;2022-07-17T12:55:35;33.00;50.00
10270;DHT22;5180;50.832;5.390;2022-07-17T12:58:02;33.30;49.80
10270;DHT22;5180;50.832;5.390;2022-07-17T13:00:28;33.50;50.00
10270;DHT22;5180;50.832;5.390;2022-07-17T13:02:54;33.70;49.90
10270;DHT22;5180;50.832;5.390;2022-07-17T13:05:19;34.00;49.80
10270;DHT22;5180;50.832;5.390;2022-07-17T13:07:45;33.90;49.30
10270;DHT22;5180;50.832;5.390;2022-07-17T13:10:11;33.90;50.00
10270;DHT22;5180;50.832;5.390;2022-07-17T13:12:36;33.80;49.30
10270;DHT22;5180;50.832;5.390;2022-07-17T13:15:04;33.70;49.50
10270;DHT22;5180;50.832;5.390;2022-07-17T13:17:30;33.70;49.30
10270;DHT22;5180;50.832;5.390;2022-07-17T13:19:55;33.50;49.20
10270;DHT22;5180;50.832;5.390;2022-07-17T13:22:21;33.00;48.90
10270;DHT22;5180;50.832;5.390;2022-07-17T13:24:47;33.00;49.40
10270;DHT22;5180;50.832;5.390;2022-07-17T13:27:12;33.10;49.70
10270;DHT22;5180;50.832;5.390;2022-07-17T13:29:38;33.30;49.80
10270;DHT22;5180;50.832;5.390;2022-07-17T13:32:04;33.40;49.70
10270;DHT22;5180;50.832;5.390;2022-07-17T13:34:30;33.50;50.40
10270;DHT22;5180;50.832;5.390;2022-07-17T13:36:55;33.60;49.30
10270;DHT22;5180;50.832;5.390;2022-07-17T13:39:22;33.70;49.50
10270;DHT22;5180;50.832;5.390;2022-07-17T13:41:48;33.90;50.20
10270;DHT22;5180;50.832;5.390;2022-07-17T13:44:14;34.00;49.50
10270;DHT22;5180;50.832;5.390;2022-07-17T13:46:40;34.10;49.60
10270;DHT22;5180;50.832;5.390;2022-07-17T13:49:05;34.00;49.80
10270;DHT22;5180;50.832;5.390;2022-07-17T13:51:32;34.20;49.00
10270;DHT22;5180;50.832;5.390;2022-07-17T13:53:57;34.10;49.00
10270;DHT22;5180;50.832;5.390;2022-07-17T13:56:23;34.30;49.00
10270;DHT22;5180;50.832;5.390;2022-07-17T13:58:49;34.20;48.50
10270;DHT22;5180;50.832;5.390;2022-07-17T14:01:15;34.20;48.70
10270;DHT22;5180;50.832;5.390;2022-07-17T14:03:41;34.60;49.10
10270;DHT22;5180;50.832;5.390;2022-07-17T14:06:07;34.90;48.30
10270;DHT22;5180;50.832;5.390;2022-07-17T14:08:34;34.90;48.10
10270;DHT22;5180;50.832;5.390;2022-07-17T14:11:00;34.80;47.70
10270;DHT22;5180;50.832;5.390;2022-07-17T14:13:26;34.50;47.60
10270;DHT22;5180;50.832;5.390;2022-07-17T14:15:52;34.40;47.40
10270;DHT22;5180;50.832;5.390;2022-07-17T14:18:17;34.50;47.60
10270;DHT22;5180;50.832;5.390;2022-07-17T14:20:43;34.50;48.00
10270;DHT22;5180;50.832;5.390;2022-07-17T14:23:09;34.70;47.80
10270;DHT22;5180;50.832;5.390;2022-07-17T14:25:35;34.60;47.60
10270;DHT22;5180;50.832;5.390;2022-07-17T14:28:00;34.80;47.80
10270;DHT22;5180;50.832;5.390;2022-07-17T14:30:26;35.10;47.60
10270;DHT22;5180;50.832;5.390;2022-07-17T14:32:52;35.00;47.60
10270;DHT22;5180;50.832;5.390;2022-07-17T14:35:19;35.00;47.60
10270;DHT22;5180;50.832;5.390;2022-07-17T14:37:44;34.90;47.40
10270;DHT22;5180;50.832;5.390;2022-07-17T14:40:13;34.80;47.10
10270;DHT22;5180;50.832;5.390;2022-07-17T14:42:39;34.60;47.20
10270;DHT22;5180;50.832;5.390;2022-07-17T14:45:07;34.60;47.10
10270;DHT22;5180;50.832;5.390;2022-07-17T14:47:33;34.80;47.10
10270;DHT22;5180;50.832;5.390;2022-07-17T14:49:58;34.90;47.30
10270;DHT22;5180;50.832;5.390;2022-07-17T14:52:24;34.90;47.20
10270;DHT22;5180;50.832;5.390;2022-07-17T14:54:49;34.90;47.00
10270;DHT22;5180;50.832;5.390;2022-07-17T14:57:15;34.60;46.70
10270;DHT22;5180;50.832;5.390;2022-07-17T14:59:41;34.40;46.70
10270;DHT22;5180;50.832;5.390;2022-07-17T15:02:06;34.40;47.20
10270;DHT22;5180;50.832;5.390;2022-07-17T15:04:32;34.60;47.00
10270;DHT22;5180;50.832;5.390;2022-07-17T15:07:00;34.60;46.70
10270;DHT22;5180;50.832;5.390;2022-07-17T15:09:25;34.60;46.80
10270;DHT22;5180;50.832;5.390;2022-07-17T15:11:51;34.70;46.80
10270;DHT22;5180;50.832;5.390;2022-07-17T15:14:16;34.70;46.80
10270;DHT22;5180;50.832;5.390;2022-07-17T15:16:43;34.80;46.70
10270;DHT22;5180;50.832;5.390;2022-07-17T15:19:09;35.00;46.60
10270;DHT22;5180;50.832;5.390;2022-07-17T15:21:34;35.20;46.60
10270;DHT22;5180;50.832;5.390;2022-07-17T15:24:00;35.50;47.00
10270;DHT22;5180;50.832;5.390;2022-07-17T15:26:26;35.90;47.10
10270;DHT22;5180;50.832;5.390;2022-07-17T15:28:51;35.90;46.90
10270;DHT22;5180;50.832;5.390;2022-07-17T15:31:17;36.00;46.70
10270;DHT22;5180;50.832;5.390;2022-07-17T15:33:42;35.90;46.60
10270;DHT22;5180;50.832;5.390;2022-07-17T15:36:09;35.80;46.40
10270;DHT22;5180;50.832;5.390;2022-07-17T15:38:38;35.80;46.10
10270;DHT22;5180;50.832;5.390;2022-07-17T15:41:04;35.80;45.90
10270;DHT22;5180;50.832;5.390;2022-07-17T15:43:30;35.60;45.90
10270;DHT22;5180;50.832;5.390;2022-07-17T15:45:56;35.50;46.30
10270;DHT22;5180;50.832;5.390;2022-07-17T15:48:22;35.40;46.10
10270;DHT22;5180;50.832;5.390;2022-07-17T15:50:48;35.20;45.90
10270;DHT22;5180;50.832;5.390;2022-07-17T15:53:13;35.10;46.20
10270;DHT22;5180;50.832;5.390;2022-07-17T15:55:39;35.00;46.50
10270;DHT22;5180;50.832;5.390;2022-07-17T15:58:05;34.90;46.60
10270;DHT22;5180;50.832;5.390;2022-07-17T16:00:30;34.80;46.80